Time;durP1;ratioP1;P1;durP2;ratioP2;P2;SDS_P1;SDS_P2;PMS_P1;PMS_P2;Temp;Humidity;BMP_temperature;BMP_pressure;BME280_temperature;BME280_humidity;BME280_pressure;Samples;Min_cycle;Max_cycle;Signal;HPM_P1;HPM_P2
2024/01/01 00:01:42;;;;;;;26.43;18.73;;;10.90;55.60;;;;;;5005333;28;20252;-59
2024/01/01 00:04:09;;;;;;;30.80;20.60;;;10.90;55.40;;;;;;5003733;28;20277;-60
2024/01/01 00:06:34;;;;;;;23.20;19.20;;;10.90;55.40;;;;;;4999802;28;20964;-61
2024/01/01 00:09:00;;;;;;;27.40;19.67;;;10.90;55.10;;;;;;4997025;28;20472;-60
2024/01/01 00:11:26;;;;;;;27.70;20.63;;;10.80;55.40;;;;;;4997393;28;20186;-62
2024/01/01 00:13:52;;;;;;;29.20;19.73;;;10.70;55.60;;;;;;5020311;28;20498;-58
2024/01/01 00:16:17;;;;;;;24.10;18.20;;;10.70;55.70;;;;;;5003518;28;21102;-58
2024/01/01 00:18:43;;;;;;;22.80;17.10;;;10.80;55.60;;;;;;4998160;28;20742;-62
2024/01/01 00:21:09;;;;;;;23.03;16.83;;;10.80;55.70;;;;;;4996471;28;20229;-60
2024/01/01 00:23:34;;;;;;;20.90;14.70;;;10.80;55.80;;;;;;5000953;28;20737;-61
2024/01/01 00:26:00;;;;;;;20.37;14.60;;;10.80;55.90;;;;;;5006756;28;20560;-60
2024/01/01 00:28:25;;;;;;;17.43;12.10;;;10.70;55.70;;;;;;5008473;28;20784;-56
2024/01/01 00:30:51;;;;;;;14.93;10.90;;;10.50;56.00;;;;;;5005703;28;20641;-59
2024/01/01 00:33:17;;;;;;;15.47;11.37;;;10.60;56.30;;;;;;5000673;28;20253;-61
2024/01/01 00:35:44;;;;;;;12.10;9.63;;;10.70;56.00;;;;;;4998325;28;20723;-61
2024/01/01 00:38:09;;;;;;;11.03;8.70;;;10.50;56.00;;;;;;5001860;28;20432;-56
2024/01/01 00:40:36;;;;;;;13.10;8.97;;;10.60;56.00;;;;;;5004220;28;20436;-61
2024/01/01 00:43:02;;;;;;;11.80;6.40;;;10.70;56.00;;;;;;5003103;28;20281;-60
2024/01/01 00:45:28;;;;;;;9.43;7.40;;;10.60;55.90;;;;;;5000544;28;20572;-60
2024/01/01 00:47:53;;;;;;;7.83;6.70;;;10.50;56.20;;;;;;4998803;28;20189;-59
2024/01/01 00:50:19;;;;;;;10.37;7.13;;;10.30;56.70;;;;;;4994949;28;20226;-60
2024/01/01 00:52:44;;;;;;;10.27;7.17;;;10.60;56.70;;;;;;5002538;28;20186;-61
2024/01/01 00:55:10;;;;;;;10.40;7.00;;;10.90;56.30;;;;;;5002007;28;20693;-59
2024/01/01 00:57:36;;;;;;;8.67;6.90;;;11.00;55.80;;;;;;5005987;28;20247;-55
2024/01/01 01:00:01;;;;;;;9.13;6.77;;;11.00;55.40;;;;;;5006777;28;20203;-59
2024/01/01 01:02:27;;;;;;;10.17;6.47;;;11.10;55.40;;;;;;5010560;28;20185;-61
2024/01/01 01:04:52;;;;;;;7.10;6.40;;;11.10;55.40;;;;;;5006748;28;20198;-58
2024/01/01 01:07:18;;;;;;;11.47;7.20;;;11.10;55.40;;;;;;5008116;28;20221;-58
2024/01/01 01:09:44;;;;;;;14.03;7.30;;;11.10;55.40;;;;;;5010097;28;20576;-61
2024/01/01 01:12:09;;;;;;;9.17;5.77;;;11.10;55.40;;;;;;5011607;28;20181;-60
2024/01/01 01:14:35;;;;;;;9.83;6.27;;;11.00;55.70;;;;;;5011321;28;20273;-61
2024/01/01 01:17:00;;;;;;;9.40;6.80;;;11.10;55.80;;;;;;5010779;28;20723;-58
2024/01/01 01:19:26;;;;;;;6.63;5.60;;;11.10;55.70;;;;;;5010659;28;20684;-62
2024/01/01 01:21:51;;;;;;;15.03;6.87;;;11.10;55.60;;;;;;5010530;28;20186;-61
2024/01/01 01:24:18;;;;;;;8.80;6.60;;;11.20;55.40;;;;;;5009621;28;20189;-60
2024/01/01 01:26:44;;;;;;;8.00;5.70;;;11.30;55.10;;;;;;5007243;28;20194;-62
2024/01/01 01:29:09;;;;;;;8.27;6.17;;;11.30;55.00;;;;;;5009522;28;20854;-60
2024/01/01 01:31:35;;;;;;;7.73;6.03;;;11.30;54.90;;;;;;5006008;28;20472;-58
2024/01/01 01:34:01;;;;;;;11.67;7.13;;;11.30;55.00;;;;;;5005827;28;20185;-59
2024/01/01 01:36:27;;;;;;;8.53;6.93;;;11.30;54.90;;;;;;5006660;28;20210;-59
2024/01/01 01:38:52;;;;;;;11.23;7.40;;;11.40;55.00;;;;;;5005942;28;20244;-60
2024/01/01 01:41:18;;;;;;;11.23;6.80;;;11.40;54.90;;;;;;4999527;28;20272;-60
2024/01/01 01:43:43;;;;;;;13.37;7.37;;;11.30;54.80;;;;;;5005744;28;20187;-61
2024/01/01 01:46:10;;;;;;;11.53;6.97;;;11.20;55.10;;;;;;4999331;28;20624;-59
2024/01/01 01:48:36;;;;;;;10.20;6.97;;;11.20;55.20;;;;;;5003305;28;20226;-60
2024/01/01 01:51:02;;;;;;;13.97;7.60;;;11.20;55.40;;;;;;5006130;28;20444;-61
2024/01/01 01:53:29;;;;;;;8.30;5.63;;;11.20;55.60;;;;;;5005174;28;20700;-59
2024/01/01 01:55:59;;;;;;;13.03;5.70;;;10.90;55.50;;;;;;5003969;28;20464;-58
2024/01/01 01:58:24;;;;;;;8.50;6.53;;;11.00;55.90;;;;;;5006766;28;20444;-58
2024/01/01 02:00:51;;;;;;;7.77;5.70;;;11.30;55.60;;;;;;5009057;28;20795;-59
2024/01/01 02:03:17;;;;;;;9.67;5.43;;;11.40;55.20;;;;;;5001541;28;20206;-59
2024/01/01 02:05:43;;;;;;;6.80;5.73;;;11.40;54.90;;;;;;5007383;28;20473;-61
2024/01/01 02:08:09;;;;;;;8.27;5.60;;;11.60;54.80;;;;;;5003706;28;20268;-59
2024/01/01 02:10:34;;;;;;;8.40;5.10;;;11.50;54.70;;;;;;4998996;28;21001;-59
2024/01/01 02:13:00;;;;;;;12.03;5.00;;;11.10;55.10;;;;;;5000326;28;20236;-60
2024/01/01 02:15:26;;;;;;;7.87;5.40;;;10.90;56.00;;;;;;4999963;28;20205;-62
2024/01/01 02:17:52;;;;;;;7.40;4.70;;;11.00;56.30;;;;;;5006450;28;20453;-60
2024/01/01 02:20:18;;;;;;;7.67;5.10;;;11.00;56.00;;;;;;5010467;28;20231;-59
2024/01/01 02:22:43;;;;;;;8.90;4.90;;;11.00;56.30;;;;;;5007030;28;20760;-60
2024/01/01 02:25:09;;;;;;;7.33;5.00;;;11.00;56.40;;;;;;5006783;28;20174;-60
2024/01/01 02:27:36;;;;;;;8.80;5.67;;;11.10;56.60;;;;;;5004354;28;20193;-59
2024/01/01 02:30:03;;;;;;;7.33;4.80;;;11.00;56.40;;;;;;5001143;28;20595;-61
2024/01/01 02:32:29;;;;;;;5.83;4.20;;;11.00;56.60;;;;;;5005868;28;20498;-58
2024/01/01 02:34:55;;;;;;;7.33;5.17;;;10.80;57.20;;;;;;5002407;28;20445;-61
2024/01/01 02:37:20;;;;;;;6.80;4.33;;;10.90;57.30;;;;;;5001916;28;20281;-59
2024/01/01 02:39:46;;;;;;;6.30;3.97;;;10.90;57.10;;;;;;5002640;28;20190;-59
2024/01/01 02:42:11;;;;;;;9.90;4.57;;;10.80;57.30;;;;;;4999233;28;20182;-59
2024/01/01 02:44:37;;;;;;;8.13;5.17;;;10.90;57.60;;;;;;5002746;28;20209;-59
2024/01/01 02:47:02;;;;;;;7.40;5.13;;;10.50;57.80;;;;;;5003821;28;20333;-60
2024/01/01 02:49:28;;;;;;;9.50;5.50;;;10.60;58.20;;;;;;5002438;28;20228;-60
2024/01/01 02:51:53;;;;;;;11.53;6.20;;;10.70;58.20;;;;;;5002460;28;20244;-60
2024/01/01 02:54:19;;;;;;;13.13;6.77;;;10.70;58.30;;;;;;5003245;28;20187;-60
2024/01/01 02:56:45;;;;;;;11.47;6.50;;;10.80;58.00;;;;;;5003417;28;20256;-59
2024/01/01 02:59:11;;;;;;;6.80;5.10;;;11.10;57.60;;;;;;5005206;28;20194;-59
2024/01/01 03:01:36;;;;;;;8.57;6.53;;;11.00;57.30;;;;;;5009852;28;20600;-61
2024/01/01 03:04:02;;;;;;;12.00;6.70;;;10.90;57.50;;;;;;5007215;28;20433;-60
2024/01/01 03:06:28;;;;;;;10.73;7.17;;;10.90;57.70;;;;;;5008912;28;20352;-58
2024/01/01 03:08:53;;;;;;;7.37;6.53;;;10.80;57.90;;;;;;5008910;28;20218;-56
2024/01/01 03:11:19;;;;;;;10.27;6.63;;;10.90;57.70;;;;;;5002848;28;20277;-61
2024/01/01 03:13:44;;;;;;;10.67;6.50;;;10.80;57.60;;;;;;5009329;28;20186;-60
2024/01/01 03:16:10;;;;;;;9.87;5.40;;;11.00;58.00;;;;;;5007696;28;20801;-59
2024/01/01 03:18:36;;;;;;;8.33;6.97;;;11.00;57.30;;;;;;5009444;28;20177;-58
2024/01/01 03:21:01;;;;;;;9.47;6.77;;;10.90;57.10;;;;;;5009174;28;20209;-57
2024/01/01 03:23:27;;;;;;;10.53;6.93;;;11.00;57.20;;;;;;5009262;28;20208;-59
2024/01/01 03:25:53;;;;;;;10.17;7.20;;;11.10;56.90;;;;;;5007735;28;20202;-61
2024/01/01 03:28:18;;;;;;;11.53;7.30;;;11.20;56.40;;;;;;5009241;28;20198;-56
2024/01/01 03:30:44;;;;;;;8.07;5.70;;;11.30;56.30;;;;;;5009370;28;20236;-60
2024/01/01 03:33:09;;;;;;;9.00;6.40;;;11.40;56.30;;;;;;5002526;28;20186;-61
2024/01/01 03:35:35;;;;;;;8.80;5.57;;;11.40;56.10;;;;;;5000794;28;20211;-61
2024/01/01 03:38:01;;;;;;;8.70;6.40;;;11.40;56.60;;;;;;5000952;28;20201;-61
2024/01/01 03:40:27;;;;;;;9.07;6.43;;;11.30;56.20;;;;;;4999604;28;20229;-60
2024/01/01 03:42:53;;;;;;;8.70;5.23;;;11.20;56.40;;;;;;5004104;28;21231;-58
2024/01/01 03:45:19;;;;;;;9.23;5.97;;;11.20;56.60;;;;;;5004360;28;20209;-57
2024/01/01 03:47:45;;;;;;;11.10;6.10;;;11.30;56.60;;;;;;4999059;28;20437;-60
2024/01/01 03:50:10;;;;;;;10.73;5.30;;;11.00;56.90;;;;;;5002098;28;20214;-59
2024/01/01 03:52:36;;;;;;;7.87;6.00;;;10.90;57.50;;;;;;5000571;28;20441;-58
2024/01/01 03:55:03;;;;;;;6.23;4.80;;;10.80;57.90;;;;;;5002220;28;20919;-59
2024/01/01 03:57:31;;;;;;;6.47;4.63;;;10.90;57.90;;;;;;5002208;28;20674;-58
2024/01/01 03:59:57;;;;;;;7.70;5.27;;;11.00;57.60;;;;;;5002228;28;20441;-58
2024/01/01 04:02:22;;;;;;;8.57;5.17;;;11.30;57.40;;;;;;4998634;28;21011;-57
2024/01/01 04:04:49;;;;;;;7.63;5.17;;;11.20;56.90;;;;;;4997153;28;20268;-58
2024/01/01 04:07:16;;;;;;;9.90;4.67;;;11.20;57.30;;;;;;4999871;28;20230;-58
2024/01/01 04:09:42;;;;;;;5.43;3.97;;;11.20;57.20;;;;;;5004264;28;20569;-58
2024/01/01 04:12:07;;;;;;;8.03;4.30;;;11.20;57.40;;;;;;5004474;28;22162;-57
2024/01/01 04:14:33;;;;;;;6.80;4.40;;;11.20;57.20;;;;;;5003243;28;20186;-58
2024/01/01 04:16:59;;;;;;;6.47;3.97;;;11.10;57.30;;;;;;4994050;28;20221;-59
2024/01/01 04:19:24;;;;;;;8.97;4.20;;;11.20;57.30;;;;;;5001165;28;20193;-60
2024/01/01 04:21:50;;;;;;;7.90;4.47;;;11.10;57.30;;;;;;4999086;28;20182;-59
2024/01/01 04:24:16;;;;;;;9.27;3.77;;;11.10;57.30;;;;;;5001338;28;20182;-59
2024/01/01 04:26:41;;;;;;;6.90;3.37;;;10.90;57.50;;;;;;4995006;28;20230;-58
2024/01/01 04:29:07;;;;;;;8.43;3.87;;;10.90;57.90;;;;;;5004295;28;20225;-58
2024/01/01 04:31:32;;;;;;;5.67;3.47;;;10.90;57.70;;;;;;4996218;28;20218;-57
2024/01/01 04:33:58;;;;;;;5.57;3.57;;;10.80;57.80;;;;;;5001745;28;20190;-59
2024/01/01 04:36:25;;;;;;;4.40;3.20;;;10.90;57.90;;;;;;5001153;28;20205;-58
2024/01/01 04:38:50;;;;;;;5.47;3.60;;;10.90;57.70;;;;;;5004786;28;20190;-59
2024/01/01 04:41:16;;;;;;;4.00;2.57;;;10.90;57.50;;;;;;4998605;28;20453;-58
2024/01/01 04:43:41;;;;;;;5.73;3.60;;;10.80;57.70;;;;;;5003026;28;20186;-58
2024/01/01 04:46:08;;;;;;;4.90;2.87;;;10.90;57.80;;;;;;4996439;28;20294;-58
2024/01/01 04:48:37;;;;;;;10.50;3.00;;;10.80;57.80;;;;;;5003025;28;20187;-58
2024/01/01 04:51:03;;;;;;;4.33;2.67;;;11.00;57.80;;;;;;5005480;28;20536;-58
2024/01/01 04:53:29;;;;;;;4.03;2.70;;;11.00;57.70;;;;;;4997339;28;21022;-59
2024/01/01 04:55:54;;;;;;;4.53;2.50;;;11.10;57.30;;;;;;4997240;28;20468;-59
2024/01/01 04:58:20;;;;;;;3.40;2.70;;;11.20;57.20;;;;;;4997681;28;20288;-59
2024/01/01 05:00:45;;;;;;;4.37;2.40;;;11.20;57.20;;;;;;5004880;28;20197;-58
2024/01/01 05:03:11;;;;;;;5.87;3.07;;;11.20;56.90;;;;;;5005076;28;20344;-59
2024/01/01 05:05:37;;;;;;;5.60;2.70;;;11.30;56.80;;;;;;5002890;28;20209;-58
2024/01/01 05:08:03;;;;;;;3.80;2.50;;;11.20;57.00;;;;;;5008021;28;20174;-60
2024/01/01 05:10:28;;;;;;;6.83;3.20;;;11.00;57.40;;;;;;5008156;28;20229;-58
2024/01/01 05:12:54;;;;;;;5.73;2.00;;;10.90;57.90;;;;;;5003222;28;20186;-58
2024/01/01 05:15:20;;;;;;;5.47;2.70;;;10.80;58.10;;;;;;5006663;28;20213;-59
2024/01/01 05:17:45;;;;;;;5.57;2.13;;;10.50;58.30;;;;;;5001787;28;20203;-58
2024/01/01 05:20:11;;;;;;;3.43;1.60;;;10.40;58.90;;;;;;5002835;28;20175;-59
2024/01/01 05:22:36;;;;;;;3.10;1.83;;;10.50;59.00;;;;;;5000427;28;20191;-59
2024/01/01 05:25:03;;;;;;;3.10;1.90;;;10.50;59.10;;;;;;4997239;28;20194;-57
2024/01/01 05:27:28;;;;;;;3.17;1.73;;;10.20;59.50;;;;;;4997159;28;20674;-58
2024/01/01 05:29:54;;;;;;;2.93;2.00;;;10.20;59.70;;;;;;4995195;28;20561;-58
2024/01/01 05:32:20;;;;;;;10.10;2.23;;;10.30;59.70;;;;;;4997881;28;20273;-59
2024/01/01 05:34:46;;;;;;;2.60;1.90;;;10.30;59.50;;;;;;5000995;28;20436;-59
2024/01/01 05:37:12;;;;;;;1.50;1.20;;;10.30;59.40;;;;;;5005460;28;20206;-59
2024/01/01 05:39:38;;;;;;;1.37;1.27;;;10.20;59.60;;;;;;4997685;28;20491;-58
2024/01/01 05:42:03;;;;;;;4.40;1.67;;;10.10;59.40;;;;;;5003275;28;20219;-57
2024/01/01 05:44:29;;;;;;;1.60;1.30;;;10.00;59.50;;;;;;5002282;28;20193;-58
2024/01/01 05:46:55;;;;;;;3.50;1.40;;;10.00;59.50;;;;;;5005141;28;20214;-57
2024/01/01 05:49:21;;;;;;;3.33;1.73;;;9.90;61.10;;;;;;5005211;28;20234;-57
2024/01/01 05:51:48;;;;;;;3.87;1.60;;;9.80;61.40;;;;;;5004118;28;20217;-59
2024/01/01 05:54:14;;;;;;;2.50;1.80;;;10.00;60.30;;;;;;4997279;28;21227;-58
2024/01/01 05:56:40;;;;;;;2.50;1.37;;;10.10;59.90;;;;;;5001830;28;20473;-58
2024/01/01 05:59:05;;;;;;;2.03;1.37;;;10.20;59.60;;;;;;5001093;28;20216;-58
2024/01/01 06:01:31;;;;;;;5.17;2.40;;;10.20;59.60;;;;;;5006556;28;20440;-58
2024/01/01 06:03:56;;;;;;;2.93;1.30;;;10.20;59.60;;;;;;5003973;28;20225;-57
2024/01/01 06:06:25;;;;;;;5.10;1.73;;;10.40;59.40;;;;;;5005748;28;20221;-57
2024/01/01 06:08:51;;;;;;;3.20;1.73;;;10.40;59.10;;;;;;5008234;28;20744;-58
2024/01/01 06:11:19;;;;;;;4.13;1.60;;;10.40;58.90;;;;;;5000865;28;20527;-58
2024/01/01 06:13:45;;;;;;;2.27;1.60;;;10.40;58.90;;;;;;5005836;28;20484;-58
2024/01/01 06:16:13;;;;;;;3.60;1.83;;;10.40;59.20;;;;;;5004668;28;20206;-57
2024/01/01 06:18:39;;;;;;;4.80;1.93;;;10.40;59.10;;;;;;5006481;28;20516;-58
2024/01/01 06:21:04;;;;;;;4.17;2.00;;;10.40;59.00;;;;;;5009680;28;20555;-59
2024/01/01 06:23:30;;;;;;;4.00;1.50;;;10.40;59.00;;;;;;5005616;28;20241;-58
2024/01/01 06:25:56;;;;;;;3.47;1.47;;;10.30;58.90;;;;;;5007685;28;20573;-58
2024/01/01 06:28:22;;;;;;;4.20;1.87;;;10.40;58.70;;;;;;5003400;28;20452;-57
2024/01/01 06:30:47;;;;;;;2.97;1.50;;;10.50;58.60;;;;;;5005830;28;20272;-59
2024/01/01 06:33:14;;;;;;;2.80;1.63;;;10.60;58.30;;;;;;4998042;28;20194;-58
2024/01/01 06:35:39;;;;;;;3.67;1.60;;;10.70;57.90;;;;;;4997651;28;20337;-59
2024/01/01 06:38:05;;;;;;;1.70;1.50;;;10.80;57.80;;;;;;5002544;28;20887;-58
2024/01/01 06:40:30;;;;;;;2.47;1.70;;;10.80;57.50;;;;;;5001323;28;20185;-59
2024/01/01 06:42:56;;;;;;;4.93;1.67;;;10.80;57.50;;;;;;4999871;28;20572;-58
2024/01/01 06:45:22;;;;;;;6.90;2.00;;;10.80;57.20;;;;;;5000527;28;20202;-57
2024/01/01 06:47:48;;;;;;;1.43;1.17;;;10.80;57.10;;;;;;5002999;28;20185;-59
2024/01/01 06:50:13;;;;;;;4.90;1.47;;;10.80;57.10;;;;;;4998492;28;20309;-58
2024/01/01 06:52:39;;;;;;;2.27;1.50;;;10.80;56.90;;;;;;5002218;28;21043;-59
2024/01/01 06:55:06;;;;;;;1.50;1.40;;;10.70;56.80;;;;;;4997895;28;20186;-58
2024/01/01 06:57:32;;;;;;;3.30;1.80;;;10.60;57.10;;;;;;5000090;28;20182;-58
2024/01/01 06:59:57;;;;;;;3.77;1.30;;;10.50;57.20;;;;;;5004997;28;20483;-56
2024/01/01 07:02:23;;;;;;;6.47;1.57;;;10.40;57.30;;;;;;5007043;28;20448;-59
2024/01/01 07:04:48;;;;;;;2.00;1.50;;;10.30;57.30;;;;;;5007495;28;20248;-58
2024/01/01 07:07:17;;;;;;;2.87;1.53;;;10.30;57.70;;;;;;5004413;28;20210;-59
2024/01/01 07:09:42;;;;;;;3.13;1.50;;;10.20;58.00;;;;;;5006710;28;20225;-57
2024/01/01 07:12:19;;;;;;;1.60;1.10;;;9.90;58.80;;;;;;5005971;28;20451;-59
2024/01/01 07:14:46;;;;;;;2.70;1.53;;;9.80;59.30;;;;;;5006541;28;20185;-57
2024/01/01 07:17:11;;;;;;;3.63;1.30;;;9.60;59.50;;;;;;5009138;28;21152;-58
2024/01/01 07:19:37;;;;;;;3.03;1.10;;;9.50;59.70;;;;;;5007208;28;20436;-59
2024/01/01 07:22:04;;;;;;;6.67;1.40;;;9.30;60.50;;;;;;5004627;28;20275;-58
2024/01/01 07:24:30;;;;;;;3.10;1.37;;;9.30;60.70;;;;;;5008696;28;20579;-60
2024/01/01 07:26:56;;;;;;;1.80;1.60;;;9.40;60.80;;;;;;5000978;28;21051;-58
2024/01/01 07:29:21;;;;;;;3.80;1.37;;;9.50;60.70;;;;;;4997540;28;20218;-60
2024/01/01 07:31:47;;;;;;;3.60;1.40;;;9.60;60.40;;;;;;5001386;28;20202;-59
2024/01/01 07:34:15;;;;;;;1.77;1.00;;;9.60;59.60;;;;;;5004883;28;20193;-59
2024/01/01 07:36:42;;;;;;;3.20;1.50;;;9.70;59.70;;;;;;5003777;28;20213;-59
2024/01/01 07:39:08;;;;;;;2.40;1.03;;;9.70;59.10;;;;;;5006161;28;20444;-58
2024/01/01 07:41:33;;;;;;;2.30;1.30;;;9.80;58.90;;;;;;5004633;28;20444;-59
2024/01/01 07:43:59;;;;;;;7.43;2.23;;;10.40;57.20;;;;;;5006006;28;20184;-60
2024/01/01 07:46:24;;;;;;;6.60;1.60;;;10.60;56.10;;;;;;5005193;28;20341;-59
2024/01/01 07:48:50;;;;;;;4.73;1.67;;;10.70;55.90;;;;;;5006576;28;20213;-58
2024/01/01 07:51:16;;;;;;;6.97;1.47;;;10.40;56.30;;;;;;5008949;28;20193;-56
2024/01/01 07:53:42;;;;;;;2.20;1.40;;;10.60;56.70;;;;;;5008871;28;20184;-58
2024/01/01 07:56:08;;;;;;;3.33;1.73;;;10.80;56.10;;;;;;5002170;28;20226;-59
2024/01/01 07:58:33;;;;;;;3.27;1.53;;;11.30;55.10;;;;;;5004272;28;20445;-59
2024/01/01 08:00:59;;;;;;;7.17;1.80;;;11.60;54.00;;;;;;5003065;28;20178;-59
2024/01/01 08:03:25;;;;;;;2.67;1.10;;;12.10;53.10;;;;;;5000587;28;20819;-60
2024/01/01 08:05:51;;;;;;;2.90;1.50;;;12.30;52.40;;;;;;5002289;28;20271;-59
2024/01/01 08:08:17;;;;;;;4.03;1.57;;;12.00;53.00;;;;;;5000594;28;20865;-60
2024/01/01 08:10:43;;;;;;;2.90;1.20;;;11.80;53.40;;;;;;4999834;28;20512;-59
2024/01/01 08:13:09;;;;;;;2.70;1.53;;;11.50;54.20;;;;;;4996255;28;21357;-60
2024/01/01 08:15:35;;;;;;;4.67;1.47;;;11.30;55.10;;;;;;5003635;28;20197;-58
2024/01/01 08:18:02;;;;;;;4.00;1.53;;;11.00;55.60;;;;;;5000709;28;20207;-58
2024/01/01 08:20:29;;;;;;;6.80;1.73;;;11.00;55.70;;;;;;5003319;28;20487;-58
2024/01/01 08:22:55;;;;;;;2.20;1.20;;;10.80;55.90;;;;;;5006012;28;20435;-56
2024/01/01 08:25:21;;;;;;;6.43;2.00;;;10.50;56.40;;;;;;5004601;28;20471;-58
2024/01/01 08:27:47;;;;;;;3.90;1.93;;;10.50;56.80;;;;;;5007857;28;20449;-60
2024/01/01 08:30:13;;;;;;;5.13;1.57;;;10.30;56.90;;;;;;5000749;28;20327;-59
2024/01/01 08:32:39;;;;;;;7.67;1.87;;;10.20;57.40;;;;;;5004810;28;20441;-58
2024/01/01 08:35:04;;;;;;;3.50;1.40;;;10.20;57.90;;;;;;5004144;28;20425;-59
2024/01/01 08:37:30;;;;;;;5.67;1.40;;;10.10;58.00;;;;;;5007809;28;20189;-60
2024/01/01 08:39:56;;;;;;;4.73;1.30;;;10.00;58.50;;;;;;5008218;28;20182;-58
2024/01/01 08:42:22;;;;;;;3.60;1.50;;;10.00;58.80;;;;;;5008876;28;20178;-59
2024/01/01 08:44:47;;;;;;;3.00;1.10;;;10.20;58.60;;;;;;5007981;28;20436;-58
2024/01/01 08:47:15;;;;;;;4.33;1.50;;;10.20;58.50;;;;;;5008628;28;20194;-57
2024/01/01 08:49:41;;;;;;;6.03;1.17;;;10.20;58.60;;;;;;5001942;28;20690;-58
2024/01/01 08:52:07;;;;;;;3.33;1.60;;;10.10;58.70;;;;;;5004387;28;20441;-58
2024/01/01 08:54:32;;;;;;;3.63;1.30;;;10.10;58.90;;;;;;5007077;28;20487;-58
2024/01/01 08:56:58;;;;;;;2.83;1.50;;;10.20;58.80;;;;;;5007950;28;20210;-59
2024/01/01 08:59:23;;;;;;;2.20;1.27;;;10.20;58.90;;;;;;5008219;28;20299;-60
2024/01/01 09:01:49;;;;;;;5.60;1.70;;;10.40;58.70;;;;;;5006315;28;20186;-58
2024/01/01 09:04:14;;;;;;;5.63;2.00;;;10.50;58.30;;;;;;5005393;28;20208;-60
2024/01/01 09:06:40;;;;;;;3.40;2.00;;;10.40;58.50;;;;;;5003998;28;20204;-59
2024/01/01 09:09:08;;;;;;;4.73;1.70;;;10.50;58.40;;;;;;5003498;28;20272;-58
2024/01/01 09:11:33;;;;;;;2.63;1.47;;;10.50;58.20;;;;;;5005690;28;20440;-59
2024/01/01 09:14:00;;;;;;;4.20;2.27;;;10.50;58.20;;;;;;5005228;28;20490;-58
2024/01/01 09:16:29;;;;;;;3.83;1.47;;;10.60;58.40;;;;;;5002579;28;20209;-58
2024/01/01 09:18:59;;;;;;;2.30;1.20;;;10.70;57.90;;;;;;5010917;28;20482;-59
2024/01/01 09:21:26;;;;;;;4.73;1.90;;;10.80;57.90;;;;;;5012341;28;20444;-59
2024/01/01 09:23:52;;;;;;;3.33;1.40;;;10.80;57.90;;;;;;5004559;28;20445;-58
2024/01/01 09:26:18;;;;;;;3.40;1.90;;;10.90;57.10;;;;;;5002074;28;20476;-58
2024/01/01 09:28:43;;;;;;;3.87;1.60;;;11.00;56.90;;;;;;5002493;28;20868;-57
2024/01/01 09:31:09;;;;;;;2.77;1.60;;;11.00;56.80;;;;;;5001033;28;20186;-59
2024/01/01 09:33:37;;;;;;;5.80;2.37;;;11.20;56.90;;;;;;5007001;28;20265;-58
2024/01/01 09:36:03;;;;;;;3.03;1.60;;;11.20;56.50;;;;;;5004580;28;20206;-59
2024/01/01 09:38:29;;;;;;;2.70;1.53;;;11.30;56.30;;;;;;5009989;28;21148;-59
2024/01/01 09:40:55;;;;;;;2.73;1.17;;;11.60;56.10;;;;;;5007928;28;20456;-59
2024/01/01 09:43:21;;;;;;;4.97;1.20;;;11.70;55.70;;;;;;5005175;28;20614;-59
2024/01/01 09:45:49;;;;;;;2.83;1.00;;;11.80;55.60;;;;;;5004613;28;20228;-60
2024/01/01 09:48:15;;;;;;;4.23;1.10;;;12.00;55.20;;;;;;5005495;28;20196;-58
2024/01/01 09:50:45;;;;;;;1.93;1.30;;;12.00;54.50;;;;;;5008412;28;20476;-58
2024/01/01 09:53:11;;;;;;;3.43;2.50;;;12.20;54.10;;;;;;5010911;28;20451;-59
2024/01/01 09:55:38;;;;;;;4.13;1.30;;;12.30;54.00;;;;;;4999685;28;20476;-59
2024/01/01 09:58:04;;;;;;;3.27;1.10;;;12.30;53.90;;;;;;5002494;28;20468;-59
2024/01/01 10:00:29;;;;;;;5.23;1.70;;;12.20;54.10;;;;;;5007062;28;20448;-59
2024/01/01 10:03:12;;;;;;;8.13;1.37;;;12.20;54.20;;;;;;5010444;28;20951;-58
2024/01/01 10:05:41;;;;;;;2.83;1.17;;;12.10;54.50;;;;;;5006968;28;20685;-59
2024/01/01 10:08:11;;;;;;;4.77;1.57;;;11.90;54.60;;;;;;5009511;28;20807;-59
2024/01/01 10:10:38;;;;;;;4.43;1.10;;;11.90;55.00;;;;;;5004243;28;20480;-58
2024/01/01 10:13:08;;;;;;;2.50;1.10;;;11.90;54.70;;;;;;5006554;28;20459;-59
2024/01/01 10:15:33;;;;;;;1.67;0.97;;;11.90;54.50;;;;;;5005710;28;20468;-59
2024/01/01 10:18:14;;;;;;;1.13;0.80;;;12.20;54.30;;;;;;5008931;28;20436;-59
2024/01/01 10:20:43;;;;;;;4.27;1.47;;;12.40;53.70;;;;;;5006571;28;20212;-59
2024/01/01 10:23:20;;;;;;;2.70;1.20;;;12.80;53.40;;;;;;5009655;28;21081;-58
2024/01/01 10:25:49;;;;;;;3.90;1.40;;;13.30;52.50;;;;;;5001831;28;20496;-58
2024/01/01 10:28:16;;;;;;;1.90;1.00;;;13.20;51.80;;;;;;5008479;28;20877;-60
2024/01/01 10:30:47;;;;;;;2.70;1.07;;;13.10;51.60;;;;;;5003800;28;20567;-60
2024/01/01 10:33:13;;;;;;;2.80;1.20;;;13.10;51.50;;;;;;4999650;28;20500;-58
2024/01/01 10:35:40;;;;;;;3.13;1.40;;;12.90;51.30;;;;;;5004209;28;20446;-60
2024/01/01 10:38:06;;;;;;;3.43;1.13;;;12.90;51.80;;;;;;5002834;28;20447;-61
2024/01/01 10:40:31;;;;;;;3.03;1.10;;;13.00;51.90;;;;;;4999730;28;20882;-60
2024/01/01 10:42:58;;;;;;;6.27;1.50;;;13.30;51.10;;;;;;4999526;28;20282;-60
2024/01/01 10:45:23;;;;;;;1.63;0.90;;;13.20;50.90;;;;;;5006615;28;20763;-61
2024/01/01 10:47:52;;;;;;;2.57;1.20;;;13.00;50.60;;;;;;5006686;28;20441;-59
2024/01/01 10:50:28;;;;;;;2.73;1.40;;;12.90;51.30;;;;;;5002557;28;20226;-60
2024/01/01 10:53:34;;;;;;;2.40;1.43;;;12.90;51.30;;;;;;5003708;28;20436;-60
2024/01/01 10:56:25;;;;;;;4.30;1.13;;;12.70;51.60;;;;;;5003532;28;20477;-60
2024/01/01 10:59:23;;;;;;;3.20;1.00;;;12.80;51.10;;;;;;5003965;28;20551;-59
2024/01/01 11:01:50;;;;;;;4.43;1.20;;;12.50;51.30;;;;;;5005735;28;20445;-59
2024/01/01 11:04:20;;;;;;;5.90;1.30;;;12.50;51.30;;;;;;4999437;28;20467;-59
2024/01/01 11:06:45;;;;;;;2.80;1.10;;;12.70;51.80;;;;;;5001629;28;20540;-60
2024/01/01 11:09:20;;;;;;;4.17;1.07;;;12.90;50.70;;;;;;5005079;28;20634;-58
2024/01/01 11:11:52;;;;;;;3.90;1.47;;;12.80;50.80;;;;;;5007907;28;20248;-60
2024/01/01 11:14:31;;;;;;;4.33;1.30;;;12.60;51.30;;;;;;5002025;28;20487;-60
2024/01/01 11:17:00;;;;;;;2.87;0.93;;;12.50;51.30;;;;;;5005882;28;20464;-59
2024/01/01 11:19:48;;;;;;;4.17;1.07;;;12.40;51.10;;;;;;5004848;28;20455;-60
2024/01/01 11:22:20;;;;;;;6.30;1.30;;;12.40;51.50;;;;;;5005951;28;20478;-59
2024/01/01 11:24:47;;;;;;;3.87;1.40;;;12.10;50.90;;;;;;4999791;28;20446;-59
2024/01/01 11:27:31;;;;;;;6.50;2.07;;;12.10;51.40;;;;;;5005437;28;20488;-60
2024/01/01 11:30:07;;;;;;;5.33;1.50;;;12.00;51.50;;;;;;5002000;28;20885;-60
2024/01/01 11:32:36;;;;;;;3.80;1.60;;;12.00;51.70;;;;;;5003369;28;20451;-60
2024/01/01 11:35:13;;;;;;;5.80;1.40;;;11.80;51.70;;;;;;5006495;28;20421;-60
2024/01/01 11:37:41;;;;;;;4.00;1.43;;;11.90;52.10;;;;;;5000236;28;20510;-61
2024/01/01 11:40:09;;;;;;;4.03;1.60;;;11.90;51.70;;;;;;4999971;28;20443;-59
2024/01/01 11:42:35;;;;;;;3.83;1.37;;;11.90;51.70;;;;;;5001911;28;20523;-58
2024/01/01 11:45:09;;;;;;;6.10;1.63;;;12.10;51.60;;;;;;4995743;28;20522;-60
2024/01/01 11:47:36;;;;;;;2.80;1.70;;;12.30;51.00;;;;;;5000455;28;20435;-60
2024/01/01 11:50:02;;;;;;;5.73;1.33;;;12.20;50.30;;;;;;4997749;28;20477;-61
2024/01/01 11:52:28;;;;;;;3.23;1.47;;;12.20;50.60;;;;;;5000042;28;20856;-59
2024/01/01 11:54:54;;;;;;;5.13;1.70;;;12.30;50.70;;;;;;5001654;28;20864;-59
2024/01/01 11:57:20;;;;;;;3.43;1.27;;;12.20;50.60;;;;;;5003981;28;20444;-59
2024/01/01 11:59:46;;;;;;;2.80;1.70;;;12.20;50.50;;;;;;5000057;28;20654;-59
2024/01/01 12:02:12;;;;;;;4.13;1.90;;;12.20;50.70;;;;;;5005547;28;20177;-58
2024/01/01 12:04:39;;;;;;;4.83;2.00;;;12.30;50.60;;;;;;5006212;28;20433;-58
2024/01/01 12:07:05;;;;;;;2.77;1.30;;;12.40;50.50;;;;;;5001978;28;20448;-60
2024/01/01 12:09:31;;;;;;;7.20;1.30;;;12.40;50.20;;;;;;5005928;28;20979;-60
2024/01/01 12:12:05;;;;;;;5.90;2.33;;;12.40;50.10;;;;;;5006268;28;20236;-59
2024/01/01 12:14:31;;;;;;;2.03;1.10;;;12.40;50.10;;;;;;4998424;28;20217;-59
2024/01/01 12:16:57;;;;;;;5.57;1.60;;;12.60;50.00;;;;;;4999983;28;20491;-59
2024/01/01 12:19:23;;;;;;;6.17;1.50;;;12.40;49.90;;;;;;4999666;28;20239;-60
2024/01/01 12:21:51;;;;;;;9.47;2.23;;;12.50;50.30;;;;;;5001469;28;20186;-61
2024/01/01 12:24:18;;;;;;;4.60;1.73;;;12.70;50.10;;;;;;5007225;28;20532;-59
2024/01/01 12:26:48;;;;;;;8.30;2.50;;;12.50;49.60;;;;;;5002594;28;20440;-60
2024/01/01 12:29:15;;;;;;;6.40;1.93;;;12.20;49.90;;;;;;4996294;28;20489;-60
2024/01/01 12:31:44;;;;;;;9.13;2.27;;;12.40;50.80;;;;;;5003765;28;20432;-59
2024/01/01 12:34:17;;;;;;;5.70;2.30;;;12.60;49.90;;;;;;5000099;28;20467;-58
2024/01/01 12:36:47;;;;;;;5.87;2.00;;;12.50;49.50;;;;;;4999937;28;20460;-58
2024/01/01 12:39:17;;;;;;;10.23;1.93;;;12.50;50.10;;;;;;5003833;28;20956;-59
2024/01/01 12:41:43;;;;;;;7.23;1.90;;;12.70;49.40;;;;;;4999551;28;21702;-59
2024/01/01 12:44:08;;;;;;;6.07;2.30;;;12.60;49.20;;;;;;4999381;28;20437;-59